createdAt,value
2018-09-10T00:01:21.686Z,7.33
2018-09-10T00:03:56.639Z,7.73
2018-09-10T00:06:31.734Z,6.93
2018-09-10T00:09:08.683Z,5.80
2018-09-10T00:11:43.819Z,6.60
2018-09-10T00:14:18.908Z,7.00
2018-09-10T00:16:54.257Z,5.13
2018-09-10T00:19:29.218Z,5.83
2018-09-10T00:22:10.662Z,5.03
2018-09-10T00:24:46.005Z,5.30
2018-09-10T00:27:21.217Z,5.00
2018-09-10T00:29:56.284Z,5.67
2018-09-10T00:32:31.346Z,5.27
2018-09-10T00:35:08.514Z,4.90
2018-09-10T00:37:44.253Z,5.47
2018-09-10T00:40:19.582Z,4.20
2018-09-10T00:42:54.684Z,6.17
2018-09-10T00:45:29.632Z,8.00
2018-09-10T00:48:04.669Z,5.47
2018-09-10T00:50:39.638Z,5.23
2018-09-10T00:53:14.902Z,5.00
2018-09-10T00:55:49.974Z,4.90
2018-09-10T00:58:24.929Z,4.57
2018-09-10T01:01:06.816Z,6.10
2018-09-10T01:03:42.079Z,5.43
2018-09-10T01:06:16.933Z,4.87
2018-09-10T01:08:51.794Z,4.83
2018-09-10T01:11:27.075Z,4.80
2018-09-10T01:14:02.065Z,7.87
2018-09-10T01:16:37.415Z,5.63
2018-09-10T01:19:13.037Z,5.10
2018-09-10T01:21:48.557Z,4.40
2018-09-10T01:24:23.684Z,4.90
2018-09-10T01:26:58.807Z,4.77
2018-09-10T01:29:34.296Z,7.00
2018-09-10T01:32:09.150Z,5.43
2018-09-10T01:34:49.446Z,4.63
2018-09-10T01:37:24.896Z,5.20
2018-09-10T01:40:00.515Z,6.37
2018-09-10T01:42:35.720Z,5.83
2018-09-10T01:45:10.906Z,6.10
2018-09-10T01:47:45.834Z,5.57
2018-09-10T01:50:21.000Z,5.47
2018-09-10T01:52:55.905Z,6.03
2018-09-10T01:55:30.819Z,5.63
2018-09-10T01:58:06.418Z,5.40
2018-09-10T02:00:41.398Z,8.70
2018-09-10T02:03:17.049Z,6.50
2018-09-10T02:05:52.526Z,4.87
2018-09-10T02:08:28.427Z,5.90
2018-09-10T02:11:03.465Z,5.93
2018-09-10T02:13:38.416Z,5.53
2018-09-10T02:16:15.686Z,6.93
2018-09-10T02:18:50.815Z,6.10
2018-09-10T02:21:26.107Z,6.47
2018-09-10T02:24:01.352Z,7.90
2018-09-10T02:26:42.858Z,6.40
2018-09-10T02:29:17.746Z,6.20
2018-09-10T02:31:53.446Z,6.17
2018-09-10T02:34:28.872Z,7.20
2018-09-10T02:37:04.086Z,5.73
2018-09-10T02:39:39.542Z,6.50
2018-09-10T02:42:14.522Z,5.80
2018-09-10T02:44:50.360Z,5.90
2018-09-10T02:47:25.247Z,6.73
2018-09-10T02:50:00.235Z,5.67
2018-09-10T02:52:35.259Z,6.10
2018-09-10T02:55:10.655Z,8.00
2018-09-10T02:57:46.635Z,6.47
2018-09-10T03:00:24.621Z,8.70
2018-09-10T03:02:59.593Z,6.03
2018-09-10T03:05:34.756Z,6.97
2018-09-10T03:08:09.884Z,9.07
2018-09-10T03:10:44.707Z,6.90
2018-09-10T03:13:20.363Z,8.40
2018-09-10T03:15:55.663Z,6.00
2018-09-10T03:18:30.682Z,6.57
2018-09-10T03:21:06.207Z,7.43
2018-09-10T03:23:42.261Z,8.27
2018-09-10T03:26:17.335Z,6.87
2018-09-10T03:28:52.515Z,10.10
2018-09-10T03:31:27.426Z,6.83
2018-09-10T03:34:02.535Z,5.53
2018-09-10T03:36:37.545Z,5.67
2018-09-10T03:39:12.759Z,6.43
2018-09-10T03:41:47.743Z,6.00
2018-09-10T03:44:22.780Z,5.13
2018-09-10T03:46:57.780Z,6.60
2018-09-10T03:49:32.636Z,6.10
2018-09-10T03:52:08.081Z,9.37
2018-09-10T03:54:43.417Z,5.37
2018-09-10T03:57:18.302Z,7.67
2018-09-10T03:59:54.208Z,5.20
2018-09-10T04:02:29.125Z,7.60
2018-09-10T04:05:04.553Z,6.27
2018-09-10T04:07:39.560Z,8.17
2018-09-10T04:10:14.628Z,6.70
2018-09-10T04:12:49.591Z,7.33
2018-09-10T04:15:24.674Z,6.23
2018-09-10T04:17:59.938Z,7.63
2018-09-10T04:20:34.872Z,6.77
2018-09-10T04:23:09.930Z,11.53
2018-09-10T04:25:44.816Z,6.27
2018-09-10T04:28:19.791Z,7.27
2018-09-10T04:30:54.722Z,7.33
2018-09-10T04:33:29.618Z,10.20
2018-09-10T04:36:05.082Z,8.13
2018-09-10T04:38:40.660Z,8.17
2018-09-10T04:41:15.434Z,8.13
2018-09-10T04:43:50.172Z,9.63
2018-09-10T04:46:25.403Z,10.90
2018-09-10T04:49:01.568Z,8.37
2018-09-10T04:51:41.837Z,8.77
2018-09-10T04:54:17.020Z,10.23
2018-09-10T04:56:51.819Z,8.23
2018-09-10T04:59:26.892Z,9.30
2018-09-10T05:02:01.836Z,12.80
2018-09-10T05:04:38.311Z,12.87
2018-09-10T05:07:13.472Z,12.00
2018-09-10T05:09:48.744Z,13.33
2018-09-10T05:12:18.369Z,11.47
2018-09-10T05:14:48.596Z,13.87
2018-09-10T05:17:18.143Z,13.93
2018-09-10T05:19:47.498Z,16.60
2018-09-10T05:22:16.777Z,15.73
2018-09-10T05:24:46.316Z,15.53
2018-09-10T05:27:22.273Z,14.03
2018-09-10T05:29:51.545Z,14.60
2018-09-10T05:32:21.885Z,17.03
2018-09-10T05:34:51.594Z,14.13
2018-09-10T05:37:22.017Z,14.10
2018-09-10T05:39:51.565Z,23.43
2018-09-10T05:42:21.107Z,15.57
2018-09-10T05:44:50.996Z,14.70
2018-09-10T05:47:20.979Z,16.40
2018-09-10T05:49:50.926Z,14.93
2018-09-10T05:52:25.184Z,15.93
2018-09-10T05:54:55.150Z,15.00
2018-09-10T05:57:24.456Z,17.07
2018-09-10T05:59:53.739Z,12.83
2018-09-10T06:02:55.031Z,13.00
2018-09-10T06:05:24.590Z,19.17
2018-09-10T06:07:55.233Z,17.80
2018-09-10T06:10:24.956Z,18.90
2018-09-10T06:12:54.877Z,22.40
2018-09-10T06:15:51.043Z,19.43
2018-09-10T06:18:21.736Z,17.57
2018-09-10T06:20:51.597Z,21.37
2018-09-10T06:23:21.505Z,15.80
2018-09-10T06:25:51.042Z,19.07
2018-09-10T06:28:20.765Z,17.17
2018-09-10T06:30:59.565Z,19.17
2018-09-10T06:33:36.849Z,20.27
2018-09-10T06:36:10.376Z,16.43
2018-09-10T06:39:09.520Z,18.30
2018-09-10T06:41:41.105Z,15.73
2018-09-10T06:44:10.718Z,19.90
2018-09-10T06:46:45.925Z,16.17
2018-09-10T06:49:22.852Z,20.80
2018-09-10T06:51:58.026Z,13.90
2018-09-10T06:54:33.863Z,15.07
2018-09-10T06:57:09.844Z,19.03
2018-09-10T06:59:44.750Z,18.67
2018-09-10T07:02:19.786Z,23.47
2018-09-10T07:04:55.190Z,18.53
2018-09-10T07:07:30.148Z,24.37
2018-09-10T07:10:05.818Z,25.00
2018-09-10T07:12:41.045Z,21.77
2018-09-10T07:15:16.103Z,20.73
2018-09-10T07:17:51.714Z,24.13
2018-09-10T07:20:21.291Z,18.63
2018-09-10T07:22:56.405Z,18.03
2018-09-10T07:25:31.416Z,23.80
2018-09-10T07:28:06.915Z,18.53
2018-09-10T07:30:42.159Z,16.67
2018-09-10T07:33:17.266Z,19.60
2018-09-10T07:35:52.323Z,23.63
2018-09-10T07:38:27.817Z,27.73
2018-09-10T07:41:03.250Z,21.47
2018-09-10T07:43:38.246Z,21.63
2018-09-10T07:46:13.512Z,18.70
2018-09-10T07:48:48.811Z,21.20
2018-09-10T07:51:24.098Z,21.60
2018-09-10T07:53:59.545Z,27.73
2018-09-10T07:56:34.607Z,26.67
2018-09-10T07:59:09.958Z,20.60
2018-09-10T08:01:48.741Z,25.00
2018-09-10T08:04:25.986Z,17.17
2018-09-10T08:07:03.485Z,21.37
2018-09-10T08:09:39.867Z,21.60
2018-09-10T08:12:16.211Z,21.30
2018-09-10T08:14:56.823Z,21.60
2018-09-10T08:17:40.894Z,20.50
2018-09-10T08:22:38.420Z,17.40
2018-09-10T08:25:14.571Z,22.43
2018-09-10T08:27:50.233Z,22.70
2018-09-10T08:30:25.618Z,21.80
2018-09-10T08:33:01.528Z,21.17
2018-09-10T08:35:45.639Z,22.50
2018-09-10T08:38:23.358Z,20.73
2018-09-10T08:40:58.670Z,20.03
2018-09-10T08:43:34.218Z,21.23
2018-09-10T08:46:10.574Z,22.73
2018-09-10T08:48:45.752Z,25.03
2018-09-10T08:51:21.527Z,23.23
2018-09-10T08:53:56.729Z,19.50
2018-09-10T08:56:32.359Z,18.70
2018-09-10T08:59:07.742Z,22.43
2018-09-10T09:01:42.983Z,19.90
2018-09-10T09:04:20.793Z,20.77
2018-09-10T09:07:10.719Z,20.90
2018-09-10T09:09:49.112Z,20.37
2018-09-10T09:12:24.459Z,23.23
2018-09-10T09:14:59.874Z,29.73
2018-09-10T09:17:40.452Z,17.00
2018-09-10T09:20:25.025Z,19.77
2018-09-10T09:23:06.015Z,15.70
2018-09-10T09:25:41.118Z,17.17
2018-09-10T09:28:16.061Z,18.83
2018-09-10T09:30:52.239Z,23.10
2018-09-10T09:33:28.604Z,18.47
2018-09-10T09:36:14.357Z,18.30
2018-09-10T09:38:54.755Z,14.77
2018-09-10T09:42:39.060Z,19.10
2018-09-10T09:45:19.896Z,16.17
2018-09-10T09:47:55.402Z,14.10
2018-09-10T09:50:30.875Z,14.80
2018-09-10T09:53:08.503Z,15.27
2018-09-10T09:55:43.585Z,11.20
2018-09-10T09:58:18.602Z,11.93
2018-09-10T10:00:53.573Z,10.10
2018-09-10T10:13:30.011Z,12.93
2018-09-10T10:16:05.015Z,12.77
2018-09-10T10:18:40.799Z,10.47
2018-09-10T10:21:18.630Z,13.40
2018-09-10T10:23:51.893Z,8.77
2018-09-10T10:26:27.566Z,7.87
2018-09-10T10:29:02.747Z,11.27
2018-09-10T10:31:37.977Z,10.83
2018-09-10T10:34:12.955Z,9.10
2018-09-10T10:36:48.156Z,11.83
2018-09-10T10:39:23.410Z,11.10
2018-09-10T10:41:53.238Z,11.30
2018-09-10T10:44:28.661Z,6.23
2018-09-10T10:47:03.599Z,9.37
2018-09-10T10:49:38.879Z,7.43
2018-09-10T10:52:14.480Z,7.33
2018-09-10T10:54:49.661Z,7.60
2018-09-10T10:57:24.793Z,8.53
2018-09-10T10:59:59.754Z,6.40
2018-09-10T11:02:35.066Z,5.17
2018-09-10T11:05:17.266Z,6.77
2018-09-10T11:07:52.485Z,5.00
2018-09-10T11:10:27.656Z,7.17
2018-09-10T11:13:03.181Z,9.20
2018-09-10T11:15:38.416Z,3.97
2018-09-10T11:18:14.887Z,3.70
2018-09-10T11:20:50.409Z,6.70
2018-09-10T11:23:25.520Z,6.37
2018-09-10T11:26:00.434Z,5.90
2018-09-10T11:28:35.629Z,5.13
2018-09-10T11:31:10.686Z,6.63
2018-09-10T11:33:45.626Z,9.73
2018-09-10T11:36:20.657Z,7.30
2018-09-10T11:38:55.475Z,6.20
2018-09-10T11:41:30.471Z,5.03
2018-09-10T11:44:05.653Z,10.57
2018-09-10T11:46:35.596Z,3.77
2018-09-10T11:49:05.585Z,5.03
2018-09-10T11:51:35.627Z,7.13
2018-09-10T11:54:05.188Z,4.97
2018-09-10T11:56:34.549Z,4.87
2018-09-10T11:59:04.226Z,4.67
2018-09-10T12:01:34.192Z,6.70
2018-09-10T12:04:06.847Z,5.10
2018-09-10T12:06:36.424Z,5.43
2018-09-10T12:09:07.927Z,4.50
2018-09-10T12:11:37.295Z,6.33
2018-09-10T12:14:07.481Z,7.07
2018-09-10T12:16:37.828Z,6.40
2018-09-10T12:19:07.735Z,5.23
2018-09-10T12:21:37.156Z,4.73
2018-09-10T12:24:07.172Z,4.30
2018-09-10T12:26:36.869Z,5.93
2018-09-10T12:29:06.654Z,4.60
2018-09-10T12:31:36.358Z,5.70
2018-09-10T12:34:06.141Z,5.70
2018-09-10T12:36:36.331Z,5.90
2018-09-10T12:39:09.610Z,6.33
2018-09-10T12:41:39.127Z,6.13
2018-09-10T12:44:08.708Z,7.50
2018-09-10T12:46:39.689Z,8.47
2018-09-10T12:49:09.489Z,9.33
2018-09-10T12:51:41.225Z,6.10
2018-09-10T12:54:16.431Z,23.47
2018-09-10T12:56:51.498Z,5.53
2018-09-10T12:59:26.465Z,7.10
2018-09-10T13:02:01.596Z,9.23
2018-09-10T13:04:36.961Z,6.13
2018-09-10T13:07:12.024Z,5.87
2018-09-10T13:09:53.724Z,10.27
2018-09-10T13:12:29.675Z,6.13
2018-09-10T13:15:05.333Z,10.60
2018-09-10T13:17:40.879Z,3.80
2018-09-10T13:20:15.689Z,8.73
2018-09-10T13:22:50.609Z,7.90
2018-09-10T13:25:26.164Z,8.30
2018-09-10T13:28:01.256Z,6.70
2018-09-10T13:30:36.186Z,8.87
2018-09-10T13:33:12.617Z,7.33
2018-09-10T13:35:47.936Z,5.90
2018-09-10T13:38:28.790Z,5.37
2018-09-10T13:41:03.861Z,7.10
2018-09-10T13:43:39.322Z,5.60
2018-09-10T13:46:14.523Z,7.00
2018-09-10T13:48:50.468Z,6.03
2018-09-10T13:51:26.717Z,7.50
2018-09-10T13:54:02.317Z,7.50
2018-09-10T13:56:37.850Z,5.67
2018-09-10T13:59:12.796Z,4.73
2018-09-10T14:01:48.003Z,7.07
2018-09-10T14:04:23.024Z,8.80
2018-09-10T14:06:57.918Z,5.63
2018-09-10T14:09:33.297Z,6.70
2018-09-10T14:12:09.040Z,12.40
2018-09-10T14:14:45.329Z,6.07
2018-09-10T14:17:27.266Z,5.83
2018-09-10T14:20:03.108Z,5.60
2018-09-10T14:22:38.025Z,4.87
2018-09-10T14:25:13.300Z,5.57
2018-09-10T14:27:55.366Z,4.00
2018-09-10T14:30:31.476Z,9.23
2018-09-10T14:33:06.738Z,6.07
2018-09-10T14:35:42.339Z,4.43
2018-09-10T14:38:18.343Z,5.00
2018-09-10T14:40:54.321Z,6.60
2018-09-10T14:43:29.684Z,4.50
2018-09-10T14:46:05.515Z,7.63
2018-09-10T14:48:40.788Z,4.73
2018-09-10T14:51:16.204Z,6.57
2018-09-10T14:53:51.746Z,7.30
2018-09-10T14:56:27.734Z,6.40
2018-09-10T14:59:02.988Z,5.87
2018-09-10T15:01:39.112Z,6.13
2018-09-10T15:04:14.776Z,6.80
2018-09-10T15:06:49.879Z,7.17
2018-09-10T15:09:25.123Z,7.43
2018-09-10T15:12:00.712Z,5.63
2018-09-10T15:14:36.340Z,5.53
2018-09-10T15:17:11.698Z,6.10
2018-09-10T15:19:47.213Z,5.40
2018-09-10T15:22:22.198Z,7.20
2018-09-10T15:24:57.478Z,8.20
2018-09-10T15:27:32.527Z,6.53
2018-09-10T15:30:08.143Z,7.70
2018-09-10T15:32:43.427Z,5.00
2018-09-10T15:35:18.919Z,6.10
2018-09-10T15:37:54.040Z,5.10
2018-09-10T15:40:29.994Z,3.67
2018-09-10T15:43:04.993Z,5.10
2018-09-10T15:45:40.762Z,6.83
2018-09-10T15:48:22.276Z,6.57
2018-09-10T15:50:57.339Z,7.47
2018-09-10T15:53:32.538Z,10.53
2018-09-10T15:56:08.077Z,4.83
2018-09-10T15:58:43.758Z,5.97
2018-09-10T16:01:19.181Z,4.63
2018-09-10T16:03:54.303Z,7.03
2018-09-10T16:06:29.494Z,7.80
2018-09-10T16:09:04.821Z,4.43
2018-09-10T16:11:40.538Z,6.47
2018-09-10T16:14:16.375Z,9.03
2018-09-10T16:16:51.667Z,5.33
2018-09-10T16:19:27.005Z,7.33
2018-09-10T16:22:01.931Z,7.17
2018-09-10T16:24:37.249Z,7.40
2018-09-10T16:27:12.910Z,5.77
2018-09-10T16:29:47.901Z,4.90
2018-09-10T16:32:23.143Z,8.30
2018-09-10T16:34:58.507Z,7.10
2018-09-10T16:37:33.788Z,6.03
2018-09-10T16:40:08.830Z,6.37
2018-09-10T16:42:43.953Z,6.57
2018-09-10T16:45:19.416Z,5.97
2018-09-10T16:47:54.434Z,8.60
2018-09-10T16:50:29.797Z,4.77
2018-09-10T16:53:08.640Z,6.60
2018-09-10T16:55:43.963Z,4.47
2018-09-10T16:58:19.562Z,7.00
2018-09-10T17:00:54.668Z,6.30
2018-09-10T17:03:30.040Z,7.50
2018-09-10T17:06:05.960Z,6.83
2018-09-10T17:08:41.232Z,5.10
2018-09-10T17:11:16.756Z,6.90
2018-09-10T17:13:53.084Z,7.90
2018-09-10T17:16:28.735Z,5.80
2018-09-10T17:19:04.163Z,10.30
2018-09-10T17:21:39.250Z,5.10
2018-09-10T17:24:14.095Z,6.87
2018-09-10T17:26:49.510Z,5.43
2018-09-10T17:29:25.594Z,8.43
2018-09-10T17:32:00.702Z,5.37
2018-09-10T17:34:35.998Z,7.57
2018-09-10T17:37:11.313Z,8.37
2018-09-10T17:39:46.585Z,7.07
2018-09-10T17:42:22.662Z,6.07
2018-09-10T17:44:58.011Z,5.77
2018-09-10T17:47:34.311Z,7.50
2018-09-10T17:50:09.851Z,6.30
2018-09-10T17:52:45.027Z,6.30
2018-09-10T17:55:20.189Z,13.50
2018-09-10T17:57:55.463Z,10.90
2018-09-10T18:00:30.278Z,8.00
2018-09-10T18:03:05.500Z,7.30
2018-09-10T18:05:40.621Z,6.90
2018-09-10T18:08:15.442Z,9.73
2018-09-10T18:10:50.598Z,6.03
2018-09-10T18:13:25.550Z,8.53
2018-09-10T18:16:00.828Z,5.87
2018-09-10T18:18:36.758Z,9.03
2018-09-10T18:21:11.923Z,9.27
2018-09-10T18:23:42.221Z,18.53
2018-09-10T18:26:12.381Z,12.30
2018-09-10T18:28:42.173Z,7.17
2018-09-10T18:31:11.797Z,9.07
2018-09-10T18:33:41.276Z,10.60
2018-09-10T18:36:11.030Z,7.70
2018-09-10T18:38:40.758Z,12.73
2018-09-10T18:41:14.548Z,9.60
2018-09-10T18:43:44.303Z,10.70
2018-09-10T18:46:14.593Z,7.83
2018-09-10T18:48:44.259Z,12.63
2018-09-10T18:51:13.950Z,8.17
2018-09-10T18:53:43.785Z,9.67
2018-09-10T18:56:13.536Z,9.20
2018-09-10T18:58:43.217Z,8.17
2018-09-10T19:01:13.221Z,10.23
2018-09-10T19:03:42.625Z,12.60
2018-09-10T19:06:12.551Z,9.33
2018-09-10T19:08:42.539Z,10.23
2018-09-10T19:11:12.811Z,8.53
2018-09-10T19:13:43.008Z,10.27
2018-09-10T19:16:12.925Z,8.37
2018-09-10T19:18:42.434Z,10.80
2018-09-10T19:21:12.181Z,9.07
2018-09-10T19:23:41.739Z,8.23
2018-09-10T19:26:11.850Z,8.70
2018-09-10T19:28:46.903Z,8.93
2018-09-10T19:31:22.095Z,9.03
2018-09-10T19:34:04.117Z,10.53
2018-09-10T19:36:39.274Z,12.40
2018-09-10T19:39:14.536Z,7.03
2018-09-10T19:41:49.820Z,10.97
2018-09-10T19:44:24.850Z,7.00
2018-09-10T19:46:59.984Z,7.60
2018-09-10T19:49:35.487Z,10.37
2018-09-10T19:52:10.339Z,9.97
2018-09-10T19:54:46.849Z,10.73
2018-09-10T19:57:22.277Z,10.03
2018-09-10T19:59:57.631Z,11.10
2018-09-10T20:02:32.774Z,10.23
2018-09-10T20:05:08.215Z,11.13
2018-09-10T20:07:43.563Z,7.30
2018-09-10T20:10:18.719Z,7.57
2018-09-10T20:12:53.944Z,8.83
2018-09-10T20:15:29.412Z,10.47
2018-09-10T20:18:04.735Z,13.43
2018-09-10T20:20:40.071Z,13.13
2018-09-10T20:23:15.159Z,12.83
2018-09-10T20:25:50.030Z,11.13
2018-09-10T20:28:25.411Z,11.50
2018-09-10T20:31:00.821Z,12.00
2018-09-10T20:34:08.956Z,15.70
2018-09-10T20:36:44.419Z,8.80
2018-09-10T20:39:14.315Z,12.17
2018-09-10T20:41:49.906Z,13.90
2018-09-10T20:44:25.050Z,9.80
2018-09-10T20:47:00.477Z,10.13
2018-09-10T20:49:35.715Z,12.30
2018-09-10T20:52:11.054Z,10.37
2018-09-10T20:54:46.483Z,19.00
2018-09-10T20:57:21.905Z,14.00
2018-09-10T20:59:57.064Z,7.03
2018-09-10T21:02:32.278Z,6.83
2018-09-10T21:05:07.577Z,10.37
2018-09-10T21:07:42.994Z,7.17
2018-09-10T21:10:18.791Z,8.90
2018-09-10T21:12:54.128Z,12.17
2018-09-10T21:15:29.243Z,8.60
2018-09-10T21:18:05.131Z,6.63
2018-09-10T21:20:40.648Z,6.67
2018-09-10T21:23:15.744Z,11.30
2018-09-10T21:25:51.002Z,9.00
2018-09-10T21:28:26.462Z,9.20
2018-09-10T21:31:01.226Z,13.20
2018-09-10T21:33:36.327Z,10.43
2018-09-10T21:36:11.512Z,12.70
2018-09-10T21:38:46.530Z,9.43
2018-09-10T21:41:22.299Z,8.23
2018-09-10T21:43:57.767Z,8.77
2018-09-10T21:46:27.103Z,9.17
2018-09-10T21:49:02.241Z,9.00
2018-09-10T21:51:38.195Z,10.93
2018-09-10T21:54:13.418Z,8.80
2018-09-10T21:56:49.214Z,10.07
2018-09-10T21:59:24.382Z,8.40
2018-09-10T22:02:00.085Z,13.80
2018-09-10T22:04:41.642Z,11.70
2018-09-10T22:07:11.605Z,12.30
2018-09-10T22:09:46.580Z,14.20
2018-09-10T22:12:22.243Z,9.70
2018-09-10T22:14:57.486Z,9.93
2018-09-10T22:17:39.207Z,10.60
2018-09-10T22:20:14.127Z,8.20
2018-09-10T22:22:49.285Z,12.13
2018-09-10T22:25:24.700Z,7.83
2018-09-10T22:28:00.297Z,10.07
2018-09-10T22:30:37.041Z,14.30
2018-09-10T22:33:12.795Z,10.80
2018-09-10T22:35:48.952Z,14.70
2018-09-10T22:38:24.839Z,11.70
2018-09-10T22:41:00.181Z,12.83
2018-09-10T22:43:36.106Z,15.10
2018-09-10T22:46:11.811Z,12.97
2018-09-10T22:48:46.939Z,11.80
2018-09-10T22:51:22.136Z,10.70
2018-09-10T22:53:57.517Z,15.87
2018-09-10T22:56:32.237Z,13.27
2018-09-10T22:59:07.658Z,11.63
2018-09-10T23:01:43.073Z,11.57
2018-09-10T23:04:18.670Z,13.80
2018-09-10T23:06:53.926Z,13.80
2018-09-10T23:09:28.819Z,13.40
2018-09-10T23:12:04.004Z,12.00
2018-09-10T23:14:38.878Z,14.70
2018-09-10T23:17:14.045Z,17.80
2018-09-10T23:19:49.156Z,13.30
2018-09-10T23:22:24.266Z,11.13
2018-09-10T23:25:00.350Z,12.87
2018-09-10T23:27:35.251Z,25.30
2018-09-10T23:30:10.297Z,14.67
2018-09-10T23:32:45.204Z,16.63
2018-09-10T23:35:20.318Z,18.13
2018-09-10T23:37:55.094Z,18.23
2018-09-10T23:40:30.685Z,19.17
2018-09-10T23:43:05.956Z,24.63
2018-09-10T23:45:41.230Z,18.60
2018-09-10T23:48:16.570Z,21.47
2018-09-10T23:50:51.918Z,25.00
2018-09-10T23:53:26.875Z,17.63
2018-09-10T23:56:02.512Z,20.27
2018-09-10T23:58:37.690Z,13.70
